Sea Cloud II — 9HUE6 — position and weather

sailwx.info

Track history (hours):
 
Tides and Currents Weather Stations Pressure Air Temp Water Temp Dewpoint Dewpoint Depression Visibility Wind Speed Wind Dir Waves Ship Positions

Sea Cloud II

Ship's website: http://www.seacloud.com/en/the-ships/sea-cloud-ii.html

Last reported at 2016-Jul-26 03:34 UTC. Time now 2016-Jul-26 04:29 UTC.
Position N 58°55' W 002°35'.

Length 117 m; draft 6 m.

Type: Passenger vessel. MMSI: 248953000.

Date/timePositionNaut miles runAvg speedWind from/ knotsBaromVisibWave heightAir tempDewpointWater temp
2016-Jul-26 03:34N 58°55' W 002°35'12 5.9
2016-Jul-26 01:33N 58°43' W 002°41'7 6.6
2016-Jul-26 00:33N 58°37' W 002°46'8 7.6
2016-Jul-25 23:29N 58°30' W 002°52'52 1.9
2016-Jul-24 20:16N 57°46' W 001°58'1312.4
2016-Jul-24 19:11N 57°36' W 001°42'711.2
2016-Jul-24 18:33N 57°29' W 001°39'24 9.9
2016-Jul-24 16:06N 57°09' W 002°04'1 1.4
2016-Jul-24 15:33N 57°09' W 002°05'0 0.0
2016-Jul-24 14:33N 57°09' W 002°05'0 0.0
2016-Jul-24 13:33N 57°09' W 002°05'0 0.0
2016-Jul-24 12:33N 57°09' W 002°05'0 0.0
2016-Jul-24 11:33N 57°09' W 002°05'0 0.0
2016-Jul-24 10:33N 57°09' W 002°05'0 0.0
2016-Jul-24 09:33N 57°09' W 002°05'0 0.0
2016-Jul-24 08:30N 57°09' W 002°05'0 0.0
2016-Jul-24 07:33N 57°09' W 002°05'1 0.5
2016-Jul-24 06:33N 57°09' W 002°04'34 4.9
2016-Jul-23 23:33N 56°35' W 002°15'7 6.6
2016-Jul-23 22:33N 56°28' W 002°18'6 5.8
2016-Jul-23 21:33N 56°23' W 002°22'6 5.5
2016-Jul-23 20:33N 56°18' W 002°27'1010.3
2016-Jul-23 19:33N 56°11' W 002°40'1212.1
2016-Jul-23 18:34N 56°04' W 002°58'9 8.8
2016-Jul-23 17:33N 55°59' W 003°11'0 0.4
2016-Jul-23 16:33N 55°59' W 003°11'0 0.0
2016-Jul-23 15:33N 55°59' W 003°11'0 0.0
2016-Jul-23 14:33N 55°59' W 003°11'0 0.0
2016-Jul-23 13:33N 55°59' W 003°11'0 0.0
2016-Jul-23 12:33N 55°59' W 003°11'0 0.0
2016-Jul-23 11:33N 55°59' W 003°11'0 0.0
2016-Jul-23 10:33N 55°59' W 003°11'0 0.0
2016-Jul-23 09:33N 55°59' W 003°11'0 0.0
2016-Jul-23 08:33N 55°59' W 003°11'0 0.0
2016-Jul-23 07:33N 55°59' W 003°11'0 0.0
2016-Jul-23 06:33N 55°59' W 003°11'0 0.0
2016-Jul-23 04:30N 55°59' W 003°11'0 0.0
2016-Jul-23 03:34N 55°59' W 003°11'2 1.6
2016-Jul-23 02:33N 56°00' W 003°10'6 6.2
2016-Jul-23 01:33N 56°03' W 003°00'6 6.5
2016-Jul-23 00:33N 56°07' W 002°51'9 8.6
2016-Jul-22 23:33N 56°12' W 002°38'1110.7
2016-Jul-22 22:33N 56°20' W 002°25'1111.0
2016-Jul-22 21:33N 56°29' W 002°14'1211.0
2016-Jul-22 20:28N 56°38' W 001°59'31 4.0
2016-Jul-22 12:33N 57°09' W 002°05'0 0.0
2016-Jul-22 11:33N 57°09' W 002°05'0 0.0
2016-Jul-22 10:33N 57°09' W 002°05'0 0.0
2016-Jul-22 09:33N 57°09' W 002°05'0 0.0
2016-Jul-22 08:33N 57°09' W 002°05'0 0.0
2016-Jul-22 07:33N 57°09' W 002°05'0 0.5
2016-Jul-22 06:32N 57°09' W 002°04'26 6.5
2016-Jul-22 02:33N 57°30' W 001°38'93 7.1
2016-Jul-21 13:21N 58°58' W 002°36'910.8
2016-Jul-21 12:33N 59°01' W 002°52'4 3.6
2016-Jul-21 11:33N 59°00' W 002°59'0 0.0
2016-Jul-21 10:33N 59°00' W 002°59'0 0.0
2016-Jul-21 09:33N 59°00' W 002°59'0 0.0
2016-Jul-21 08:33N 59°00' W 002°59'0 0.0
2016-Jul-21 07:33N 59°00' W 002°59'1 0.5
2016-Jul-21 06:33N 58°60' W 002°58'7 7.0
2016-Jul-21 05:33N 59°00' W 002°44'7 7.4
2016-Jul-21 04:33N 59°00' W 002°30'  
2016-Jul-17 17:32N 59°25' E 004°56'1111.2
2016-Jul-17 16:32N 59°14' E 005°01'10 9.7
2016-Jul-17 15:33N 59°07' E 005°13'9 9.3
2016-Jul-17 14:33N 59°06' E 005°31'1010.2
2016-Jul-17 13:33N 58°58' E 005°44'0 0.0
2016-Jul-17 12:31N 58°58' E 005°44'0 0.0
2016-Jul-17 11:31N 58°58' E 005°44'0 0.0
2016-Jul-17 10:19N 58°58' E 005°44'0 0.0
2016-Jul-17 08:31N 58°58' E 005°44'0 0.0
2016-Jul-17 07:31N 58°58' E 005°44'0 0.0
2016-Jul-17 06:25N 58°58' E 005°44'3 1.6
2016-Jul-17 04:33N 59°01' E 005°40'5 5.0
2016-Jul-17 03:33N 58°57' E 005°33'8 8.5
2016-Jul-17 02:33N 58°49' E 005°27'6 6.1
2016-Jul-17 01:33N 58°43' E 005°24'8 8.0
2016-Jul-17 00:33N 58°36' E 005°30'10 9.9
2016-Jul-16 23:33N 58°28' E 005°41'10 9.6
2016-Jul-16 22:33N 58°21' E 005°54'10 9.4
2016-Jul-16 21:27N 58°14' E 006°07'9 9.7
2016-Jul-16 20:33N 58°08' E 006°20'6 6.2
2016-Jul-16 19:33N 58°04' E 006°29'6 6.1
2016-Jul-16 18:33N 57°60' E 006°38'7 6.6
2016-Jul-16 17:33N 57°57' E 006°49'10 9.8
2016-Jul-16 16:31N 57°55' E 007°07'1010.0
2016-Jul-16 15:33N 57°54' E 007°25'  
Track history (hours):
 
Tides and Currents Weather Stations Pressure Air Temp Water Temp Dewpoint Dewpoint Depression Visibility Wind Speed Wind Dir Waves Ship Positions

Sea Cloud II

Ship's website: http://www.seacloud.com/en/the-ships/sea-cloud-ii.html

Last reported at 2016-Jul-26 03:34 UTC. Time now 2016-Jul-26 04:29 UTC.
Position N 58°55' W 002°35'.

Length 117 m; draft 6 m.

Type: Passenger vessel. MMSI: 248953000.

Date/timePositionNaut miles runAvg speedWind from/ knotsBaromVisibWave heightAir tempDewpointWater temp
2016-Jul-26 03:34N 58°55' W 002°35'12 5.9
2016-Jul-26 01:33N 58°43' W 002°41'7 6.6
2016-Jul-26 00:33N 58°37' W 002°46'8 7.6
2016-Jul-25 23:29N 58°30' W 002°52'52 1.9
2016-Jul-24 20:16N 57°46' W 001°58'1312.4
2016-Jul-24 19:11N 57°36' W 001°42'711.2
2016-Jul-24 18:33N 57°29' W 001°39'24 9.9
2016-Jul-24 16:06N 57°09' W 002°04'1 1.4
2016-Jul-24 15:33N 57°09' W 002°05'0 0.0
2016-Jul-24 14:33N 57°09' W 002°05'0 0.0
2016-Jul-24 13:33N 57°09' W 002°05'0 0.0
2016-Jul-24 12:33N 57°09' W 002°05'0 0.0
2016-Jul-24 11:33N 57°09' W 002°05'0 0.0
2016-Jul-24 10:33N 57°09' W 002°05'0 0.0
2016-Jul-24 09:33N 57°09' W 002°05'0 0.0
2016-Jul-24 08:30N 57°09' W 002°05'0 0.0
2016-Jul-24 07:33N 57°09' W 002°05'1 0.5
2016-Jul-24 06:33N 57°09' W 002°04'34 4.9
2016-Jul-23 23:33N 56°35' W 002°15'7 6.6
2016-Jul-23 22:33N 56°28' W 002°18'6 5.8
2016-Jul-23 21:33N 56°23' W 002°22'6 5.5
2016-Jul-23 20:33N 56°18' W 002°27'1010.3
2016-Jul-23 19:33N 56°11' W 002°40'1212.1
2016-Jul-23 18:34N 56°04' W 002°58'9 8.8
2016-Jul-23 17:33N 55°59' W 003°11'0 0.4
2016-Jul-23 16:33N 55°59' W 003°11'0 0.0
2016-Jul-23 15:33N 55°59' W 003°11'0 0.0
2016-Jul-23 14:33N 55°59' W 003°11'0 0.0
2016-Jul-23 13:33N 55°59' W 003°11'0 0.0
2016-Jul-23 12:33N 55°59' W 003°11'0 0.0
2016-Jul-23 11:33N 55°59' W 003°11'0 0.0
2016-Jul-23 10:33N 55°59' W 003°11'0 0.0
2016-Jul-23 09:33N 55°59' W 003°11'0 0.0
2016-Jul-23 08:33N 55°59' W 003°11'0 0.0
2016-Jul-23 07:33N 55°59' W 003°11'0 0.0
2016-Jul-23 06:33N 55°59' W 003°11'0 0.0
2016-Jul-23 04:30N 55°59' W 003°11'0 0.0
2016-Jul-23 03:34N 55°59' W 003°11'2 1.6
2016-Jul-23 02:33N 56°00' W 003°10'6 6.2
2016-Jul-23 01:33N 56°03' W 003°00'6 6.5
2016-Jul-23 00:33N 56°07' W 002°51'9 8.6
2016-Jul-22 23:33N 56°12' W 002°38'1110.7
2016-Jul-22 22:33N 56°20' W 002°25'1111.0
2016-Jul-22 21:33N 56°29' W 002°14'1211.0
2016-Jul-22 20:28N 56°38' W 001°59'31 4.0
2016-Jul-22 12:33N 57°09' W 002°05'0 0.0
2016-Jul-22 11:33N 57°09' W 002°05'0 0.0
2016-Jul-22 10:33N 57°09' W 002°05'0 0.0
2016-Jul-22 09:33N 57°09' W 002°05'0 0.0
2016-Jul-22 08:33N 57°09' W 002°05'0 0.0
2016-Jul-22 07:33N 57°09' W 002°05'0 0.5
2016-Jul-22 06:32N 57°09' W 002°04'26 6.5
2016-Jul-22 02:33N 57°30' W 001°38'93 7.1
2016-Jul-21 13:21N 58°58' W 002°36'910.8
2016-Jul-21 12:33N 59°01' W 002°52'4 3.6
2016-Jul-21 11:33N 59°00' W 002°59'0 0.0
2016-Jul-21 10:33N 59°00' W 002°59'0 0.0
2016-Jul-21 09:33N 59°00' W 002°59'0 0.0
2016-Jul-21 08:33N 59°00' W 002°59'0 0.0
2016-Jul-21 07:33N 59°00' W 002°59'1 0.5
2016-Jul-21 06:33N 58°60' W 002°58'7 7.0
2016-Jul-21 05:33N 59°00' W 002°44'7 7.4
2016-Jul-21 04:33N 59°00' W 002°30'  
2016-Jul-17 17:32N 59°25' E 004°56'1111.2
2016-Jul-17 16:32N 59°14' E 005°01'10 9.7
2016-Jul-17 15:33N 59°07' E 005°13'9 9.3
2016-Jul-17 14:33N 59°06' E 005°31'1010.2
2016-Jul-17 13:33N 58°58' E 005°44'0 0.0
2016-Jul-17 12:31N 58°58' E 005°44'0 0.0
2016-Jul-17 11:31N 58°58' E 005°44'0 0.0
2016-Jul-17 10:19N 58°58' E 005°44'0 0.0
2016-Jul-17 08:31N 58°58' E 005°44'0 0.0
2016-Jul-17 07:31N 58°58' E 005°44'0 0.0
2016-Jul-17 06:25N 58°58' E 005°44'3 1.6
2016-Jul-17 04:33N 59°01' E 005°40'5 5.0
2016-Jul-17 03:33N 58°57' E 005°33'8 8.5
2016-Jul-17 02:33N 58°49' E 005°27'6 6.1
2016-Jul-17 01:33N 58°43' E 005°24'8 8.0
2016-Jul-17 00:33N 58°36' E 005°30'10 9.9
2016-Jul-16 23:33N 58°28' E 005°41'10 9.6
2016-Jul-16 22:33N 58°21' E 005°54'10 9.4
2016-Jul-16 21:27N 58°14' E 006°07'9 9.7
2016-Jul-16 20:33N 58°08' E 006°20'6 6.2
2016-Jul-16 19:33N 58°04' E 006°29'6 6.1
2016-Jul-16 18:33N 57°60' E 006°38'7 6.6
2016-Jul-16 17:33N 57°57' E 006°49'10 9.8
2016-Jul-16 16:31N 57°55' E 007°07'1010.0
2016-Jul-16 15:33N 57°54' E 007°25'  

Dump ship's entire track history